createdAt,value
2019-02-25T00:05:08.397Z,3.00
2019-02-25T00:15:13.850Z,3.10
2019-02-25T00:25:19.307Z,3.10
2019-02-25T00:35:24.743Z,3.10
2019-02-25T00:45:30.067Z,3.10
2019-02-25T00:55:35.338Z,3.20
2019-02-25T01:05:41.834Z,3.30
2019-02-25T01:15:47.274Z,3.30
2019-02-25T01:25:52.595Z,3.20
2019-02-25T01:35:58.511Z,3.20
2019-02-25T01:46:03.962Z,3.20
2019-02-25T01:56:09.555Z,3.10
2019-02-25T02:06:15.321Z,3.10
2019-02-25T02:16:20.758Z,2.90
2019-02-25T02:26:26.228Z,2.90
2019-02-25T02:36:31.579Z,2.80
2019-02-25T02:47:08.933Z,2.70
2019-02-25T02:57:14.309Z,2.70
2019-02-25T03:07:19.895Z,2.70
2019-02-25T03:17:25.353Z,2.70
2019-02-25T03:27:30.874Z,2.70
2019-02-25T03:37:36.384Z,2.70
2019-02-25T03:47:42.039Z,2.60
2019-02-25T03:57:47.695Z,2.60
2019-02-25T04:07:53.123Z,2.50
2019-02-25T04:17:59.153Z,2.50
2019-02-25T04:28:04.676Z,2.40
2019-02-25T04:38:10.094Z,2.40
2019-02-25T04:48:15.565Z,2.40
2019-02-25T04:58:20.995Z,2.30
2019-02-25T05:08:26.391Z,2.30
2019-02-25T05:18:31.726Z,2.30
2019-02-25T05:28:37.088Z,2.10
2019-02-25T05:38:42.876Z,2.10
2019-02-25T05:48:48.291Z,2.10
2019-02-25T05:58:53.753Z,2.30
2019-02-25T06:08:59.112Z,3.40
2019-02-25T06:19:04.530Z,4.70
2019-02-25T06:29:09.817Z,4.80
2019-02-25T06:39:15.142Z,5.00
2019-02-25T06:49:20.507Z,5.90
2019-02-25T06:59:25.970Z,6.50
2019-02-25T07:09:53.229Z,6.30
2019-02-25T07:20:16.292Z,5.90
2019-02-25T07:30:41.568Z,5.90
2019-02-25T07:41:11.610Z,6.20
2019-02-25T07:51:41.568Z,6.90
2019-02-25T08:02:10.301Z,7.70
2019-02-25T08:12:31.760Z,8.30
2019-02-25T08:22:44.034Z,8.50
2019-02-25T08:32:59.409Z,8.50
2019-02-25T08:43:18.079Z,8.90
2019-02-25T08:53:23.785Z,9.10
2019-02-25T09:03:29.474Z,9.10
2019-02-25T09:13:35.216Z,8.80
2019-02-25T09:23:40.629Z,9.00
2019-02-25T09:33:46.002Z,8.90
2019-02-25T09:43:51.537Z,8.70
2019-02-25T09:53:56.926Z,8.70
2019-02-25T10:04:02.339Z,8.80
2019-02-25T10:14:08.212Z,8.80
2019-02-25T10:24:13.789Z,8.80
2019-02-25T10:34:19.334Z,8.90
2019-02-25T10:44:24.824Z,8.80
2019-02-25T10:54:30.259Z,8.80
2019-02-25T11:04:35.848Z,8.80
2019-02-25T11:14:43.359Z,9.10
2019-02-25T11:24:49.835Z,9.20
2019-02-25T11:34:56.841Z,9.20
2019-02-25T11:45:04.375Z,9.30
2019-02-25T11:55:09.953Z,9.50
2019-02-25T12:05:16.822Z,9.70
2019-02-25T12:15:22.512Z,9.80
2019-02-25T12:25:28.094Z,10.00
2019-02-25T12:35:33.432Z,10.20
2019-02-25T12:45:38.850Z,10.10
2019-02-25T12:55:47.522Z,10.20
2019-02-25T13:05:53.190Z,10.10
2019-02-25T13:15:59.218Z,9.90
2019-02-25T13:26:07.528Z,9.90
2019-02-25T13:36:13.114Z,10.40
2019-02-25T13:46:18.643Z,10.40
2019-02-25T13:56:24.072Z,10.00
2019-02-25T14:06:29.605Z,9.80
2019-02-25T14:16:34.889Z,9.30
2019-02-25T14:26:41.170Z,9.00
2019-02-25T14:36:48.362Z,8.80
2019-02-25T14:46:53.597Z,8.40
2019-02-25T14:56:59.107Z,8.20
2019-02-25T15:07:06.450Z,7.80
2019-02-25T15:17:12.799Z,7.50
2019-02-25T15:27:18.755Z,7.10
2019-02-25T15:37:24.197Z,6.50
2019-02-25T15:47:29.553Z,5.80
2019-02-25T15:57:35.846Z,5.30
2019-02-25T16:07:42.200Z,5.10
2019-02-25T16:17:51.343Z,5.20
2019-02-25T16:27:55.646Z,5.30
2019-02-25T16:38:02.771Z,5.20
2019-02-25T16:48:08.534Z,5.10
2019-02-25T16:58:14.020Z,5.00
2019-02-25T17:08:20.811Z,4.70
2019-02-25T17:18:26.339Z,4.50
2019-02-25T17:28:32.111Z,4.40
2019-02-25T17:38:38.025Z,4.10
2019-02-25T17:48:45.930Z,4.20
2019-02-25T17:58:51.012Z,4.00
2019-02-25T18:08:57.692Z,4.00
2019-02-25T18:19:03.776Z,3.90
2019-02-25T18:29:09.437Z,3.90
2019-02-25T18:39:16.336Z,4.00
2019-02-25T18:49:21.992Z,4.20
2019-02-25T18:59:27.950Z,4.30
2019-02-25T19:09:34.882Z,4.40
2019-02-25T19:19:42.577Z,4.40
2019-02-25T19:29:51.192Z,4.40
2019-02-25T19:39:57.162Z,4.50
2019-02-25T19:50:04.580Z,4.60
2019-02-25T20:00:17.831Z,4.70
2019-02-25T20:10:22.519Z,4.70
2019-02-25T20:20:36.083Z,4.80
2019-02-25T20:30:43.019Z,4.80
2019-02-25T20:40:51.216Z,4.80
2019-02-25T20:50:59.622Z,4.80
2019-02-25T21:01:07.240Z,4.90
2019-02-25T21:11:13.486Z,4.80
2019-02-25T21:21:19.439Z,4.90
2019-02-25T21:31:26.521Z,4.90
2019-02-25T21:41:32.641Z,4.70
2019-02-25T21:51:39.295Z,4.70
2019-02-25T22:01:45.688Z,4.60
2019-02-25T22:11:51.363Z,4.60
2019-02-25T22:21:58.084Z,4.50
2019-02-25T22:32:06.255Z,4.40
2019-02-25T22:42:12.213Z,4.30
2019-02-25T22:52:21.850Z,4.30
2019-02-25T23:02:28.047Z,4.30
2019-02-25T23:12:35.629Z,4.30
2019-02-25T23:22:41.247Z,4.30
2019-02-25T23:32:46.832Z,4.20
2019-02-25T23:42:52.552Z,4.20
2019-02-25T23:52:58.015Z,4.00
